Time;durP1;ratioP1;P1;durP2;ratioP2;P2;SDS_P1;SDS_P2;PMS_P1;PMS_P2;Temp;Humidity;BMP_temperature;BMP_pressure;BME280_temperature;BME280_humidity;BME280_pressure;Samples;Min_cycle;Max_cycle;Signal;HPM_P1;HPM_P2
2021/11/01 00:00:14;;;;;;;58.70;2.90;;;10.80;1.00;;;;;;5092363;28;20564;-64
2021/11/01 00:02:42;;;;;;;58.47;2.80;;;10.80;1.00;;;;;;5092578;28;20880;-64
2021/11/01 00:05:09;;;;;;;58.47;2.93;;;10.80;1.00;;;;;;5092186;28;20929;-65
2021/11/01 00:07:36;;;;;;;58.17;2.70;;;10.80;1.00;;;;;;5092274;28;20537;-64
2021/11/01 00:10:04;;;;;;;58.23;3.00;;;10.80;1.00;;;;;;5092370;28;20556;-65
2021/11/01 00:12:33;;;;;;;58.40;2.80;;;10.70;1.00;;;;;;5092298;28;20450;-65
2021/11/01 00:15:01;;;;;;;58.07;2.87;;;10.70;1.00;;;;;;5092150;28;20567;-65
2021/11/01 00:17:28;;;;;;;58.57;2.70;;;10.80;1.00;;;;;;5090992;28;20536;-65
2021/11/01 00:19:56;;;;;;;59.40;5.40;;;10.80;1.00;;;;;;5092265;28;20466;-65
2021/11/01 00:22:24;;;;;;;58.37;2.90;;;10.80;1.00;;;;;;5092390;28;20446;-65
2021/11/01 00:24:51;;;;;;;58.50;3.20;;;10.80;1.00;;;;;;5092150;28;20449;-64
2021/11/01 00:27:18;;;;;;;58.27;2.90;;;10.80;1.00;;;;;;5091780;28;20446;-64
2021/11/01 00:29:46;;;;;;;58.30;3.00;;;10.80;1.00;;;;;;5091956;28;20472;-64
2021/11/01 00:32:13;;;;;;;58.27;2.80;;;10.90;1.00;;;;;;5092212;28;20487;-65
2021/11/01 00:34:41;;;;;;;58.17;3.10;;;10.90;1.00;;;;;;5092073;28;20536;-65
2021/11/01 00:37:08;;;;;;;58.47;2.80;;;10.90;1.00;;;;;;5091700;28;20482;-65
2021/11/01 00:39:35;;;;;;;58.07;3.10;;;10.90;1.00;;;;;;5091997;28;20478;-65
2021/11/01 00:42:02;;;;;;;58.30;2.83;;;10.90;1.00;;;;;;5091979;28;20452;-65
2021/11/01 00:44:29;;;;;;;59.40;3.73;;;10.90;1.00;;;;;;5091830;28;20481;-65
2021/11/01 00:46:58;;;;;;;58.17;2.90;;;10.90;1.00;;;;;;5091542;28;20945;-65
2021/11/01 00:49:26;;;;;;;58.17;2.80;;;10.90;1.00;;;;;;5091905;28;20458;-65
2021/11/01 00:51:54;;;;;;;58.33;2.80;;;10.90;1.00;;;;;;5092052;28;20479;-65
2021/11/01 00:54:21;;;;;;;58.27;2.73;;;10.90;1.00;;;;;;5091890;28;20454;-65
2021/11/01 00:56:48;;;;;;;58.50;2.80;;;11.00;1.00;;;;;;5091443;28;20483;-65
2021/11/01 00:59:15;;;;;;;58.27;2.87;;;11.00;1.00;;;;;;5091471;28;20450;-65
2021/11/01 01:01:42;;;;;;;58.33;3.30;;;11.00;1.00;;;;;;5091943;28;20476;-64
2021/11/01 01:04:10;;;;;;;58.40;2.80;;;11.00;1.00;;;;;;5091875;28;20442;-65
2021/11/01 01:06:37;;;;;;;58.70;3.20;;;11.10;1.00;;;;;;5091477;28;20448;-64
2021/11/01 01:09:04;;;;;;;58.07;2.73;;;11.10;1.00;;;;;;5091846;28;20484;-65
2021/11/01 01:11:31;;;;;;;58.30;2.80;;;11.20;1.00;;;;;;5091279;28;20469;-65
2021/11/01 01:13:58;;;;;;;58.37;3.10;;;11.20;1.00;;;;;;5091622;28;20489;-65
2021/11/01 01:16:26;;;;;;;58.17;2.87;;;11.20;1.00;;;;;;5091126;28;20477;-66
2021/11/01 01:18:56;;;;;;;58.07;2.60;;;11.20;1.00;;;;;;5091813;28;20450;-65
2021/11/01 01:24:10;;;;;;;58.23;2.80;;;11.20;1.00;;;;;;5091496;28;20433;-65
2021/11/01 01:26:37;;;;;;;58.50;3.27;;;11.30;1.00;;;;;;5091151;28;20449;-65
2021/11/01 01:29:05;;;;;;;58.17;3.10;;;11.30;1.00;;;;;;5093451;28;20446;-65
2021/11/01 01:31:32;;;;;;;58.07;3.10;;;11.30;1.00;;;;;;5095256;28;20470;-65
2021/11/01 01:33:59;;;;;;;58.30;2.70;;;11.30;1.00;;;;;;5095297;28;20449;-65
2021/11/01 01:36:28;;;;;;;58.20;2.93;;;11.30;1.00;;;;;;5094787;28;20501;-65
2021/11/01 01:38:55;;;;;;;58.07;2.83;;;11.30;1.00;;;;;;5095293;28;20481;-65
2021/11/01 01:41:25;;;;;;;58.17;2.80;;;11.30;1.00;;;;;;5095181;28;20497;-65
2021/11/01 01:43:55;;;;;;;58.30;2.80;;;11.30;1.00;;;;;;5095203;28;20446;-65
2021/11/01 01:46:23;;;;;;;59.60;3.73;;;11.40;1.00;;;;;;5094937;28;20449;-65
2021/11/01 01:48:52;;;;;;;58.57;3.00;;;11.40;1.00;;;;;;5094987;28;20533;-65
2021/11/01 01:51:20;;;;;;;58.07;3.00;;;11.40;1.00;;;;;;5094781;28;20481;-65
2021/11/01 01:53:50;;;;;;;58.37;3.10;;;11.50;1.00;;;;;;5094908;28;20450;-65
2021/11/01 01:56:18;;;;;;;58.17;2.80;;;11.50;1.00;;;;;;5094409;28;21009;-65
2021/11/01 01:58:58;;;;;;;58.13;2.70;;;11.60;1.00;;;;;;5095093;28;20536;-65
2021/11/01 02:01:25;;;;;;;58.13;2.70;;;11.60;1.00;;;;;;5094458;28;20547;-65
2021/11/01 02:03:53;;;;;;;58.47;3.40;;;11.70;1.00;;;;;;5094622;28;20482;-64
2021/11/01 02:06:30;;;;;;;58.27;2.70;;;11.90;1.00;;;;;;5094439;28;20486;-65
2021/11/01 02:09:04;;;;;;;58.17;2.60;;;12.20;1.00;;;;;;5094616;28;20485;-65
2021/11/01 02:11:36;;;;;;;58.07;2.60;;;12.50;1.00;;;;;;5094526;28;20902;-65
2021/11/01 02:14:04;;;;;;;58.07;2.90;;;12.70;1.00;;;;;;5094406;28;20442;-65
2021/11/01 02:16:34;;;;;;;58.20;2.63;;;12.90;1.00;;;;;;5092847;28;20528;-65
2021/11/01 02:19:08;;;;;;;57.77;2.60;;;13.00;1.00;;;;;;5094470;28;20474;-65
2021/11/01 02:21:45;;;;;;;57.97;2.70;;;13.10;1.00;;;;;;5094269;28;20451;-65
2021/11/01 02:24:19;;;;;;;58.30;2.70;;;13.10;1.00;;;;;;5094445;28;21008;-65
2021/11/01 02:26:49;;;;;;;57.50;2.80;;;13.20;1.00;;;;;;5093837;28;20942;-65
2021/11/01 02:29:16;;;;;;;58.13;2.80;;;13.20;1.00;;;;;;5094222;28;21000;-65
2021/11/01 02:31:44;;;;;;;58.07;2.70;;;13.20;1.00;;;;;;5094227;28;20537;-65
2021/11/01 02:34:12;;;;;;;58.33;2.70;;;13.20;1.00;;;;;;5094008;28;20477;-65
2021/11/01 02:36:39;;;;;;;58.30;2.60;;;13.20;1.00;;;;;;5093834;28;20553;-65
2021/11/01 02:39:06;;;;;;;58.23;2.53;;;13.10;1.00;;;;;;5094163;28;20873;-65
2021/11/01 02:41:34;;;;;;;58.40;2.70;;;13.10;1.00;;;;;;5092888;28;20477;-65
2021/11/01 02:44:05;;;;;;;58.40;2.67;;;13.10;1.00;;;;;;5093996;28;20783;-65
2021/11/01 02:46:32;;;;;;;58.27;2.67;;;13.00;1.00;;;;;;5093555;28;20442;-65
2021/11/01 02:49:00;;;;;;;58.07;2.60;;;12.90;1.00;;;;;;5094023;28;20529;-65
2021/11/01 02:51:28;;;;;;;58.13;2.73;;;12.80;1.00;;;;;;5093829;28;20474;-65
2021/11/01 02:53:57;;;;;;;58.33;2.70;;;12.80;1.00;;;;;;5093609;28;20993;-66
2021/11/01 02:56:24;;;;;;;57.87;2.70;;;12.60;1.00;;;;;;5093319;28;20485;-66
2021/11/01 02:58:52;;;;;;;58.17;2.80;;;12.60;1.00;;;;;;5093612;28;20549;-66
2021/11/01 03:01:22;;;;;;;58.07;2.67;;;12.40;1.00;;;;;;5093237;28;20520;-66
2021/11/01 03:03:49;;;;;;;58.07;2.90;;;12.30;1.00;;;;;;5093747;28;21018;-66
2021/11/01 03:06:19;;;;;;;58.07;2.80;;;12.20;1.00;;;;;;5093250;28;20533;-66
2021/11/01 03:08:47;;;;;;;58.30;2.67;;;12.20;1.00;;;;;;5093483;28;20897;-66
2021/11/01 03:11:15;;;;;;;58.07;2.80;;;12.10;1.00;;;;;;5093178;28;20545;-66
2021/11/01 03:13:44;;;;;;;58.40;2.90;;;12.00;1.00;;;;;;5093314;28;20482;-66
2021/11/01 03:16:11;;;;;;;58.23;2.70;;;12.00;1.00;;;;;;5093109;28;20482;-66
2021/11/01 03:18:48;;;;;;;57.87;2.80;;;11.90;1.00;;;;;;5093342;28;20442;-66
2021/11/01 03:21:17;;;;;;;58.27;3.00;;;11.90;1.00;;;;;;5089373;28;20511;-66
2021/11/01 03:23:48;;;;;;;58.23;2.90;;;11.80;1.00;;;;;;5093217;28;20446;-66
2021/11/01 03:26:19;;;;;;;58.27;2.90;;;11.80;1.00;;;;;;5092614;28;20446;-66
2021/11/01 03:28:50;;;;;;;58.30;2.83;;;11.70;1.00;;;;;;5093478;28;20453;-66
2021/11/01 03:31:20;;;;;;;58.27;2.70;;;11.70;1.00;;;;;;5093072;28;20482;-65
2021/11/01 03:33:51;;;;;;;58.23;2.80;;;11.60;1.00;;;;;;5093092;28;20478;-66
2021/11/01 03:36:19;;;;;;;58.27;2.70;;;11.60;1.00;;;;;;5092457;28;20568;-66
2021/11/01 03:38:46;;;;;;;58.13;2.70;;;11.50;1.00;;;;;;5093205;28;20450;-65
2021/11/01 03:41:16;;;;;;;58.07;2.77;;;11.50;1.00;;;;;;5092920;28;20470;-65
2021/11/01 03:43:51;;;;;;;58.30;2.83;;;11.50;1.00;;;;;;5092830;28;20523;-65
2021/11/01 03:46:24;;;;;;;58.43;2.77;;;11.40;1.00;;;;;;5092594;28;20533;-65
2021/11/01 03:48:54;;;;;;;58.17;3.10;;;11.40;1.00;;;;;;5092730;28;20450;-65
2021/11/01 03:51:38;;;;;;;58.33;2.80;;;11.30;1.00;;;;;;5092250;28;20549;-65
2021/11/01 03:54:05;;;;;;;58.33;3.00;;;11.20;1.00;;;;;;5092722;28;20453;-65
2021/11/01 03:56:33;;;;;;;58.23;2.67;;;11.20;1.00;;;;;;5092037;28;20572;-65
2021/11/01 03:59:00;;;;;;;58.10;2.90;;;11.20;1.00;;;;;;5092558;28;20539;-65
2021/11/01 04:01:27;;;;;;;58.27;3.00;;;11.20;1.00;;;;;;5092401;28;20808;-64
2021/11/01 04:03:56;;;;;;;58.43;2.97;;;11.20;1.00;;;;;;5092298;28;21040;-65
2021/11/01 04:06:23;;;;;;;58.33;2.90;;;11.10;1.00;;;;;;5092134;28;20470;-65
2021/11/01 04:08:50;;;;;;;58.03;2.83;;;11.10;1.00;;;;;;5092452;28;20482;-65
2021/11/01 04:11:18;;;;;;;58.87;3.13;;;11.00;1.00;;;;;;5092330;28;20497;-65
2021/11/01 04:13:45;;;;;;;58.10;2.53;;;11.00;1.00;;;;;;5092453;28;20456;-65
2021/11/01 04:16:13;;;;;;;58.20;2.60;;;11.00;1.00;;;;;;5091714;28;20469;-65
2021/11/01 04:18:52;;;;;;;58.37;2.67;;;10.90;1.00;;;;;;5092369;28;20488;-65
2021/11/01 04:21:20;;;;;;;58.37;2.70;;;10.90;1.00;;;;;;5092227;28;20485;-65
2021/11/01 04:23:47;;;;;;;58.13;2.67;;;10.90;1.00;;;;;;5092223;28;20473;-64
2021/11/01 04:26:17;;;;;;;58.27;2.77;;;10.90;1.00;;;;;;5091796;28;20458;-65
2021/11/01 04:28:43;;;;;;;58.57;2.80;;;10.90;1.00;;;;;;5091894;28;20883;-65
2021/11/01 04:31:13;;;;;;;58.23;2.80;;;10.80;1.00;;;;;;5092098;28;20902;-64
2021/11/01 04:33:42;;;;;;;57.73;2.70;;;10.80;1.00;;;;;;5092127;28;20449;-64
2021/11/01 04:36:10;;;;;;;58.07;2.80;;;10.70;1.00;;;;;;5091620;28;20456;-65
2021/11/01 04:38:47;;;;;;;58.03;2.70;;;10.70;1.00;;;;;;5092054;28;20930;-65
2021/11/01 04:41:20;;;;;;;58.17;2.80;;;10.70;1.00;;;;;;5091799;28;20474;-64
2021/11/01 04:54:53;;;;;;;58.13;2.80;;;10.70;1.00;;;;;;5091896;28;20474;-65
2021/11/01 04:57:21;;;;;;;62.30;3.40;;;10.70;1.00;;;;;;5091584;28;20547;-65
2021/11/01 04:59:49;;;;;;;58.57;3.20;;;10.60;1.00;;;;;;5091594;28;20532;-64
2021/11/01 05:02:16;;;;;;;58.30;2.80;;;10.60;1.00;;;;;;5091728;28;20459;-64
2021/11/01 05:04:45;;;;;;;58.23;2.70;;;10.60;1.00;;;;;;5094797;28;20457;-65
2021/11/01 05:07:12;;;;;;;59.40;3.53;;;10.60;1.00;;;;;;5095810;28;20627;-65
2021/11/01 05:09:44;;;;;;;58.20;2.63;;;10.60;1.00;;;;;;5095712;28;20475;-65
2021/11/01 05:12:21;;;;;;;58.80;2.90;;;10.60;1.00;;;;;;5095745;28;20578;-65
2021/11/01 05:15:04;;;;;;;58.50;2.87;;;10.60;1.00;;;;;;5095541;28;20934;-65
2021/11/01 05:17:39;;;;;;;58.27;2.80;;;10.60;1.00;;;;;;5095599;28;20481;-65
2021/11/01 05:20:11;;;;;;;58.07;2.70;;;10.60;1.00;;;;;;5095659;28;20476;-65
2021/11/01 05:22:44;;;;;;;58.30;2.77;;;10.50;1.00;;;;;;5095531;28;20453;-65
2021/11/01 05:25:15;;;;;;;58.90;3.63;;;10.50;1.00;;;;;;5095296;28;20535;-65
2021/11/01 05:27:54;;;;;;;58.17;2.97;;;10.50;1.00;;;;;;5095200;28;20449;-65
2021/11/01 05:30:26;;;;;;;58.40;2.70;;;10.40;1.00;;;;;;5095416;28;20465;-65
2021/11/01 05:32:57;;;;;;;58.20;2.73;;;10.50;1.00;;;;;;5095414;28;20452;-65
2021/11/01 05:35:25;;;;;;;58.40;2.77;;;10.50;1.00;;;;;;5094857;28;20455;-65
2021/11/01 05:37:51;;;;;;;58.17;2.80;;;10.50;1.00;;;;;;5095299;28;20516;-65
2021/11/01 05:40:19;;;;;;;58.03;2.80;;;10.40;1.00;;;;;;5095180;28;20552;-65
2021/11/01 05:42:47;;;;;;;58.40;2.80;;;10.40;1.00;;;;;;5095216;28;20873;-64
2021/11/01 05:45:15;;;;;;;58.27;2.77;;;10.40;1.00;;;;;;5094876;28;20981;-65
2021/11/01 05:47:45;;;;;;;58.00;2.83;;;10.40;1.00;;;;;;5094718;28;20476;-65
2021/11/01 05:50:12;;;;;;;58.47;3.00;;;10.40;1.00;;;;;;5095015;28;20464;-65
2021/11/01 05:52:41;;;;;;;58.70;3.47;;;10.30;1.00;;;;;;5095090;28;20531;-65
2021/11/01 05:55:17;;;;;;;58.47;2.80;;;10.30;1.00;;;;;;5094896;28;20448;-65
2021/11/01 05:57:50;;;;;;;58.17;2.80;;;10.40;1.00;;;;;;5094590;28;20474;-65
2021/11/01 06:00:34;;;;;;;58.20;2.90;;;10.40;1.00;;;;;;5094539;28;20489;-65
2021/11/01 06:03:05;;;;;;;58.27;2.90;;;10.40;1.00;;;;;;5094966;28;20456;-65
2021/11/01 06:08:27;;;;;;;58.57;4.10;;;10.40;1.00;;;;;;5094665;28;20429;-65
2021/11/01 06:13:34;;;;;;;58.70;3.30;;;10.40;3.30;;;;;;5094300;28;20475;-64
2021/11/01 06:16:03;;;;;;;58.67;2.93;;;10.30;4.10;;;;;;5092809;28;20438;-66
2021/11/01 06:18:35;;;;;;;59.00;3.30;;;10.40;5.20;;;;;;5094441;28;20649;-66
2021/11/01 06:21:03;;;;;;;60.50;3.20;;;10.40;6.70;;;;;;5094286;28;20473;-65
2021/11/01 06:23:30;;;;;;;58.23;2.80;;;10.40;7.10;;;;;;5094379;28;20456;-66
2021/11/01 06:25:57;;;;;;;58.17;2.80;;;10.40;7.10;;;;;;5094050;28;20449;-65
2021/11/01 06:28:23;;;;;;;58.50;2.97;;;10.40;8.10;;;;;;5094148;28;20495;-65
2021/11/01 06:30:53;;;;;;;58.57;3.20;;;10.40;9.60;;;;;;5094118;28;21155;-65
2021/11/01 06:33:47;;;;;;;58.23;2.90;;;10.30;10.10;;;;;;5094132;28;20490;-66
2021/11/01 06:42:11;;;;;;;58.27;2.67;;;10.20;14.00;;;;;;5073226;28;20445;-65
2021/11/01 06:44:55;;;;;;;58.17;2.70;;;10.20;15.40;;;;;;5094037;28;20548;-65
2021/11/01 06:50:10;;;;;;;58.00;2.60;;;10.20;20.10;;;;;;5093777;28;20522;-67
2021/11/01 06:55:50;;;;;;;58.20;2.63;;;10.10;26.10;;;;;;5093720;28;20433;-66
2021/11/01 06:58:31;;;;;;;58.43;2.70;;;10.10;29.10;;;;;;5093611;28;20521;-65
2021/11/01 07:14:52;;;;;;;57.87;2.77;;;10.20;47.10;;;;;;5093316;28;20457;-66
2021/11/01 07:17:28;;;;;;;58.33;2.77;;;10.20;49.10;;;;;;5092955;28;20529;-66
2021/11/01 07:20:10;;;;;;;58.20;2.70;;;10.20;50.50;;;;;;5093414;28;20844;-65
2021/11/01 07:25:51;;;;;;;58.03;2.60;;;10.20;53.00;;;;;;5092586;28;20479;-65
2021/11/01 08:40:49;;;;;;;58.13;2.70;;;10.10;25.40;;;;;;5169921;27;20472;-65
2021/11/01 08:46:30;;;;;;;58.13;2.50;;;10.00;25.40;;;;;;5133654;27;20940;-65
2021/11/01 08:52:01;;;;;;;58.27;2.73;;;10.10;26.50;;;;;;5171333;27;20429;-65
2021/11/01 09:03:02;;;;;;;58.40;2.70;;;10.20;32.00;;;;;;5171651;27;20463;-65
2021/11/01 09:22:41;;;;;;;58.33;2.80;;;10.70;36.30;;;;;;5102978;28;20941;-65
2021/11/01 09:25:18;;;;;;;58.37;2.80;;;10.80;37.90;;;;;;5152407;27;20456;-65
2021/11/01 09:27:57;;;;;;;58.07;2.80;;;10.90;39.20;;;;;;5170840;27;20445;-64
2021/11/01 09:35:41;;;;;;;58.27;2.90;;;10.90;38.30;;;;;;5170766;27;20518;-64
2021/11/01 09:41:34;;;;;;;58.17;2.80;;;10.70;38.90;;;;;;5170806;27;20509;-64
2021/11/01 09:44:09;;;;;;;58.17;2.80;;;10.70;38.70;;;;;;5170425;27;20470;-64
2021/11/01 09:46:36;;;;;;;57.97;2.80;;;10.80;38.20;;;;;;5170194;27;20434;-64
2021/11/01 09:51:50;;;;;;;57.93;2.60;;;10.90;36.30;;;;;;5156091;27;20443;-65
2021/11/01 09:54:21;;;;;;;58.27;3.20;;;11.00;37.20;;;;;;5156458;27;20439;-65
2021/11/01 09:56:59;;;;;;;58.27;2.80;;;11.10;38.60;;;;;;5156144;27;20522;-65
2021/11/01 09:59:30;;;;;;;58.27;2.77;;;11.20;42.70;;;;;;5156170;27;20443;-65
2021/11/01 10:01:57;;;;;;;58.13;2.87;;;11.30;44.50;;;;;;5156310;27;20443;-65
2021/11/01 10:04:27;;;;;;;58.37;2.73;;;11.30;42.80;;;;;;5156123;27;20443;-64
2021/11/01 10:07:09;;;;;;;58.20;2.70;;;11.30;42.00;;;;;;5155807;27;20471;-65
2021/11/01 10:09:40;;;;;;;58.20;2.70;;;11.30;42.00;;;;;;5156238;27;20506;-65
2021/11/01 10:12:11;;;;;;;58.17;2.70;;;11.30;41.30;;;;;;5156167;27;20816;-65
2021/11/01 10:14:47;;;;;;;58.10;2.70;;;11.20;38.60;;;;;;5155900;27;20518;-65
2021/11/01 10:17:34;;;;;;;58.23;2.80;;;11.10;37.00;;;;;;5156018;27;20853;-65
2021/11/01 10:20:01;;;;;;;58.13;2.53;;;11.00;35.50;;;;;;5156017;27;20462;-64
2021/11/01 10:22:34;;;;;;;58.03;2.77;;;10.80;28.50;;;;;;5155867;27;20538;-65
2021/11/01 10:25:01;;;;;;;58.40;2.90;;;10.60;20.70;;;;;;5155734;27;20457;-64
2021/11/01 10:27:31;;;;;;;58.20;2.70;;;10.60;15.20;;;;;;5155583;27;20446;-64
2021/11/01 10:30:02;;;;;;;58.13;2.70;;;10.40;12.80;;;;;;5155638;27;20462;-64
2021/11/01 10:32:33;;;;;;;58.40;2.80;;;10.40;12.30;;;;;;5155825;27;20448;-64
2021/11/01 10:35:21;;;;;;;58.27;2.70;;;10.50;12.30;;;;;;5155694;27;20450;-64
2021/11/01 10:38:05;;;;;;;58.17;2.63;;;10.50;15.30;;;;;;5155497;27;20527;-64
2021/11/01 10:40:36;;;;;;;58.23;2.80;;;10.50;14.50;;;;;;5155643;27;20513;-64
2021/11/01 10:46:20;;;;;;;58.03;2.60;;;10.50;15.00;;;;;;5152131;27;21012;-64
2021/11/01 11:11:30;;;;;;;58.03;2.70;;;10.90;13.00;;;;;;5154924;27;20488;-65
2021/11/01 11:14:01;;;;;;;61.97;4.20;;;10.80;12.50;;;;;;5155046;27;20894;-65
2021/11/01 11:17:02;;;;;;;58.13;2.67;;;10.80;8.90;;;;;;5154449;27;20567;-65
2021/11/01 11:19:42;;;;;;;58.20;2.63;;;10.80;4.90;;;;;;5155055;27;20810;-65
2021/11/01 11:47:23;;;;;;;57.87;2.80;;;11.30;30.50;;;;;;5154081;27;20414;-65
2021/11/01 11:49:50;;;;;;;58.80;3.03;;;11.30;28.80;;;;;;5154234;27;20489;-65
2021/11/01 11:52:21;;;;;;;58.17;2.80;;;11.30;24.40;;;;;;5154133;27;20436;-65
2021/11/01 11:54:52;;;;;;;58.13;2.80;;;11.30;22.60;;;;;;5154346;27;20821;-65
2021/11/01 11:57:20;;;;;;;58.27;2.67;;;11.30;23.20;;;;;;5153900;27;20508;-65
2021/11/01 11:59:49;;;;;;;58.07;2.80;;;11.20;23.10;;;;;;5154064;27;20548;-66
2021/11/01 12:02:16;;;;;;;58.37;2.70;;;11.20;20.00;;;;;;5154034;27;20444;-65
2021/11/01 12:04:46;;;;;;;58.23;2.70;;;11.10;19.00;;;;;;5153901;27;20835;-64
2021/11/01 12:07:15;;;;;;;58.03;2.70;;;11.10;15.60;;;;;;5153523;27;20439;-65
2021/11/01 12:09:55;;;;;;;58.30;2.80;;;11.10;15.30;;;;;;5153925;27;20479;-66
2021/11/01 12:17:50;;;;;;;58.23;2.77;;;11.10;23.20;;;;;;5144309;27;20490;-66
2021/11/01 12:20:20;;;;;;;58.17;2.70;;;11.10;26.30;;;;;;5153557;27;20514;-66
2021/11/01 12:22:50;;;;;;;58.23;2.80;;;11.10;25.10;;;;;;5153690;27;20534;-66
2021/11/01 12:25:23;;;;;;;58.50;2.87;;;11.10;23.70;;;;;;5153598;27;20538;-66
2021/11/01 12:27:59;;;;;;;58.13;2.90;;;11.10;23.40;;;;;;5153523;27;20446;-65
2021/11/01 12:30:34;;;;;;;58.03;2.70;;;11.20;21.60;;;;;;5153415;27;20550;-65
2021/11/01 12:33:01;;;;;;;58.13;2.77;;;11.10;19.00;;;;;;5153003;27;20492;-66
2021/11/01 12:35:30;;;;;;;58.27;2.77;;;11.10;19.30;;;;;;5152988;27;20522;-65
2021/11/01 12:38:01;;;;;;;58.13;2.70;;;11.00;19.70;;;;;;5153553;27;20486;-65
2021/11/01 12:40:43;;;;;;;57.97;2.87;;;10.90;19.70;;;;;;5153840;27;20474;-65
2021/11/01 12:43:23;;;;;;;58.17;2.70;;;10.90;20.20;;;;;;5153622;27;20532;-66
2021/11/01 12:57:37;;;;;;;71.00;7.93;;;10.90;18.30;;;;;;5065431;28;20473;-66
2021/11/01 13:00:06;;;;;;;58.27;2.77;;;10.90;16.40;;;;;;5128626;27;20477;-65
2021/11/01 13:02:39;;;;;;;58.13;2.77;;;11.00;17.80;;;;;;5153351;27;20534;-65
2021/11/01 13:05:09;;;;;;;58.17;2.83;;;11.00;19.20;;;;;;5153239;27;20545;-65
2021/11/01 13:07:51;;;;;;;58.03;2.80;;;11.00;18.70;;;;;;5152852;27;20478;-66
2021/11/01 13:10:24;;;;;;;58.23;2.80;;;11.00;19.70;;;;;;5153286;27;20467;-66
2021/11/01 13:18:36;;;;;;;58.37;2.90;;;11.00;23.60;;;;;;5153109;27;20904;-66
2021/11/01 13:21:09;;;;;;;57.97;3.00;;;11.00;22.20;;;;;;5153061;27;20475;-65
2021/11/01 13:23:38;;;;;;;58.07;2.80;;;11.00;21.40;;;;;;5155206;27;20532;-65
2021/11/01 13:26:22;;;;;;;58.17;2.73;;;11.00;22.30;;;;;;5156669;27;20868;-66
2021/11/01 13:29:16;;;;;;;58.17;2.70;;;11.00;15.70;;;;;;5157161;27;20447;-66
2021/11/01 13:37:17;;;;;;;58.23;2.80;;;10.90;13.30;;;;;;5156144;27;20577;-66
2021/11/01 13:39:44;;;;;;;58.17;2.83;;;10.90;15.40;;;;;;5156572;27;20463;-66
2021/11/01 13:42:13;;;;;;;57.80;2.70;;;11.00;15.30;;;;;;5156795;27;20546;-66
2021/11/01 13:44:43;;;;;;;57.67;2.70;;;10.90;14.90;;;;;;5156501;27;20449;-66
2021/11/01 13:47:14;;;;;;;58.13;2.77;;;11.00;10.10;;;;;;5156259;27;20821;-66
2021/11/01 13:49:44;;;;;;;58.17;2.77;;;11.00;10.40;;;;;;5156673;27;20486;-65
2021/11/01 13:55:02;;;;;;;58.33;3.00;;;11.00;10.90;;;;;;5156100;27;20881;-66
2021/11/01 13:57:32;;;;;;;58.10;2.73;;;11.00;12.50;;;;;;5155999;27;20523;-66
2021/11/01 14:00:22;;;;;;;58.07;2.67;;;11.00;12.20;;;;;;5156216;27;20985;-66
2021/11/01 14:16:39;;;;;;;58.27;2.70;;;11.20;19.30;;;;;;5153550;27;20514;-66
2021/11/01 14:30:35;;;;;;;58.07;2.60;;;11.30;16.70;;;;;;5139362;27;20442;-66
2021/11/01 14:33:42;;;;;;;58.00;2.53;;;11.30;14.30;;;;;;5155549;27;20439;-65
2021/11/01 14:36:39;;;;;;;58.27;3.13;;;11.30;11.20;;;;;;5155274;27;20458;-65
2021/11/01 15:07:20;;;;;;;57.93;2.60;;;11.30;14.40;;;;;;5154787;27;20412;-66
2021/11/01 15:15:43;;;;;;;58.30;2.60;;;11.20;12.20;;;;;;5090609;28;20502;-66
2021/11/01 15:18:32;;;;;;;58.33;2.77;;;11.60;21.40;;;;;;5132100;27;20475;-66
2021/11/01 15:21:05;;;;;;;58.07;2.60;;;12.10;38.40;;;;;;5154501;27;20493;-66
2021/11/01 15:23:45;;;;;;;58.17;2.63;;;12.30;35.70;;;;;;5154753;27;20560;-66
2021/11/01 15:29:17;;;;;;;57.87;2.67;;;12.20;18.30;;;;;;5154578;27;20458;-65
2021/11/01 15:35:04;;;;;;;58.27;2.53;;;12.10;1.00;;;;;;5154580;27;20938;-65
2021/11/01 15:40:45;;;;;;;57.87;2.60;;;11.90;1.00;;;;;;5154366;27;20909;-66
2021/11/01 16:18:50;;;;;;;57.93;2.70;;;10.30;1.00;;;;;;5153726;27;21002;-65
2021/11/01 16:21:18;;;;;;;57.87;2.70;;;10.30;1.00;;;;;;5153517;27;20541;-66
2021/11/01 16:23:45;;;;;;;57.60;2.60;;;10.30;1.00;;;;;;5153826;27;20450;-65
2021/11/01 16:26:18;;;;;;;57.87;2.50;;;10.20;1.00;;;;;;5153440;27;20535;-65
2021/11/01 16:28:49;;;;;;;57.87;2.50;;;10.20;1.00;;;;;;5153639;27;20457;-65
2021/11/01 16:31:26;;;;;;;58.17;2.53;;;10.10;1.00;;;;;;5153561;27;20470;-66
2021/11/01 16:33:59;;;;;;;58.17;2.63;;;10.10;1.00;;;;;;5153489;27;20834;-65
2021/11/01 16:36:45;;;;;;;58.10;2.67;;;10.10;1.00;;;;;;5153232;27;20549;-65
2021/11/01 16:39:14;;;;;;;58.23;2.73;;;10.00;1.00;;;;;;5153480;27;20485;-65
2021/11/01 16:41:42;;;;;;;58.27;2.70;;;10.00;1.00;;;;;;5153561;27;20454;-65
2021/11/01 16:44:18;;;;;;;58.30;2.80;;;10.00;1.00;;;;;;5153397;27;20493;-65
2021/11/01 16:46:47;;;;;;;58.13;2.77;;;10.00;1.00;;;;;;5152973;27;20441;-65
2021/11/01 16:49:15;;;;;;;58.17;2.80;;;10.00;1.00;;;;;;5153392;27;20795;-66
2021/11/01 16:51:43;;;;;;;58.27;2.77;;;10.00;1.00;;;;;;5153572;27;20477;-65
2021/11/01 16:54:14;;;;;;;58.20;2.67;;;10.00;1.00;;;;;;5153335;27;20481;-65
2021/11/01 16:56:50;;;;;;;58.20;2.90;;;10.00;1.00;;;;;;5152810;27;20928;-65
2021/11/01 16:59:31;;;;;;;58.03;2.70;;;10.00;1.00;;;;;;5156715;27;20913;-65
2021/11/01 17:02:09;;;;;;;57.87;2.70;;;10.00;1.00;;;;;;5157580;27;20447;-65
2021/11/01 17:04:38;;;;;;;58.17;2.77;;;9.90;1.00;;;;;;5157463;27;20525;-65
2021/11/01 17:07:12;;;;;;;58.23;2.90;;;9.90;1.00;;;;;;5156975;27;20451;-65
2021/11/01 17:10:06;;;;;;;58.30;2.83;;;9.90;1.00;;;;;;5157546;27;20495;-65
2021/11/01 17:26:25;;;;;;;58.30;2.80;;;9.90;7.00;;;;;;5156823;27;20446;-66
2021/11/01 17:29:10;;;;;;;58.17;2.80;;;9.90;7.70;;;;;;5157128;27;20442;-65
2021/11/01 17:34:57;;;;;;;58.07;2.80;;;9.90;9.10;;;;;;5156823;27;20425;-65
2021/11/01 17:37:33;;;;;;;58.23;2.80;;;9.90;10.40;;;;;;5156408;27;20463;-65
2021/11/01 18:41:15;;;;;;;58.00;2.70;;;9.00;20.80;;;;;;5130014;27;20440;-65
2021/11/01 18:52:11;;;;;;;58.47;2.90;;;8.80;21.40;;;;;;5130087;28;20515;-65
2021/11/01 18:54:39;;;;;;;58.50;2.90;;;8.80;22.20;;;;;;5130258;27;20477;-65
2021/11/01 18:57:07;;;;;;;58.37;2.93;;;8.80;23.50;;;;;;5129448;27;20438;-65
2021/11/01 18:59:37;;;;;;;58.37;3.10;;;8.80;24.40;;;;;;5129447;28;20497;-64
2021/11/01 19:02:33;;;;;;;58.27;3.00;;;8.80;26.40;;;;;;5129539;27;20965;-65
2021/11/01 19:05:05;;;;;;;58.23;2.63;;;8.80;27.60;;;;;;5129437;27;20443;-65
2021/11/01 19:07:40;;;;;;;58.17;2.90;;;8.80;28.80;;;;;;5129174;28;20466;-65
2021/11/01 19:10:15;;;;;;;58.23;2.70;;;8.80;29.30;;;;;;5129192;28;20978;-65
2021/11/01 20:05:34;;;;;;;58.37;2.90;;;7.60;22.80;;;;;;5113936;28;20660;-65
2021/11/01 20:08:34;;;;;;;58.47;2.85;;;7.60;22.80;;;;;;5114743;28;20454;-65
2021/11/01 20:13:53;;;;;;;58.47;2.90;;;7.50;22.60;;;;;;5114370;28;20430;-65
2021/11/01 21:26:09;;;;;;;58.80;3.25;;;6.20;18.10;;;;;;5112669;28;20707;-65
2021/11/01 21:28:37;;;;;;;58.60;2.92;;;6.20;17.90;;;;;;5113089;28;20660;-65
2021/11/01 21:31:04;;;;;;;58.55;2.70;;;6.20;18.30;;;;;;5112990;28;20353;-65
2021/11/01 21:33:34;;;;;;;58.67;3.00;;;6.20;18.70;;;;;;5113038;28;20246;-65
2021/11/01 21:36:04;;;;;;;58.80;3.00;;;6.10;18.80;;;;;;5112481;28;20203;-65
2021/11/01 21:38:32;;;;;;;58.53;2.80;;;6.10;18.70;;;;;;5112937;28;20250;-65
2021/11/01 21:40:59;;;;;;;58.65;3.00;;;6.10;18.40;;;;;;5112865;28;20228;-65
2021/11/01 21:43:26;;;;;;;58.47;2.97;;;6.00;18.40;;;;;;5112791;28;20200;-65
2021/11/01 21:45:55;;;;;;;58.40;3.00;;;6.00;18.40;;;;;;5112355;28;20224;-65
2021/11/01 21:48:23;;;;;;;58.45;2.92;;;6.00;18.70;;;;;;5112638;28;20208;-65
2021/11/01 21:50:51;;;;;;;58.72;3.00;;;6.00;19.10;;;;;;5112616;28;20224;-65
2021/11/01 21:53:22;;;;;;;59.20;4.22;;;5.90;18.90;;;;;;5112627;28;20211;-65
2021/11/01 21:55:49;;;;;;;58.65;3.10;;;5.90;18.80;;;;;;5112309;28;20199;-65
2021/11/01 21:58:29;;;;;;;58.67;3.00;;;5.80;18.70;;;;;;5112728;28;20204;-65
2021/11/01 22:01:25;;;;;;;58.65;3.40;;;5.80;18.20;;;;;;5112151;28;20230;-65
2021/11/01 22:09:57;;;;;;;58.58;2.90;;;5.70;17.70;;;;;;5104970;28;20207;-65
2021/11/01 22:18:03;;;;;;;58.97;3.72;;;5.60;18.20;;;;;;5112701;28;20301;-65
2021/11/01 22:20:32;;;;;;;58.47;2.80;;;5.60;17.90;;;;;;5112261;28;20674;-65
2021/11/01 22:23:03;;;;;;;59.05;3.30;;;5.50;17.90;;;;;;5112380;28;20199;-65
2021/11/01 22:25:36;;;;;;;58.67;3.13;;;5.50;17.70;;;;;;5111852;28;20217;-65
2021/11/01 22:33:52;;;;;;;58.60;3.03;;;5.40;17.50;;;;;;5112383;28;20233;-65
2021/11/01 22:39:19;;;;;;;59.38;3.50;;;5.30;16.80;;;;;;5112293;28;20594;-65
2021/11/01 22:42:02;;;;;;;58.60;2.95;;;5.30;16.40;;;;;;5112209;28;20207;-65
2021/11/01 22:55:49;;;;;;;58.40;3.00;;;5.30;18.90;;;;;;5111732;28;20199;-65
2021/11/01 22:58:20;;;;;;;58.67;2.97;;;5.30;21.40;;;;;;5110260;28;20204;-65